Winchester, Idaho
Current Conditions -  °F | °C
As of 11:56 PM on Thursday 18 Dec 2014 (Local Time) from KLWS Reporting Station
Light Rain Light Rain  
Wind Chill: 40°   Ceiling: 9000
Heat Index: 44°   Visibility: 10mi
Dew Point: 37°   Wind: 7mph
Humidity: 76%   Direction: 90°E
Pressure: 29.94"   Gusts: NA
Location:  46.24°N, 116.62°W
Report Text: KLWS 190756Z AUTO 09006KT 10SM -RA FEW055 OVC090 07/03 A2994 RMK AO2 RAB44 SLP143 P0000 T00670028 400830028
Loading
Personal Weather Stations






























Interactive Weather Map New forecast layout! Learn more

10-Day Weather Forecast

Advertisements
Track Severe Weather on mobile